createdAt,value
2022-07-30T00:00:31.515Z,99.90
2022-07-30T00:02:59.624Z,99.90
2022-07-30T00:05:28.156Z,99.90
2022-07-30T00:07:56.321Z,99.90
2022-07-30T00:10:24.704Z,99.90
2022-07-30T00:12:52.929Z,99.90
2022-07-30T00:15:22.813Z,99.90
2022-07-30T00:17:51.376Z,99.90
2022-07-30T00:20:19.473Z,99.90
2022-07-30T00:22:48.034Z,99.90
2022-07-30T00:25:18.778Z,99.90
2022-07-30T00:27:47.868Z,99.90
2022-07-30T00:30:17.140Z,99.90
2022-07-30T00:32:46.929Z,99.90
2022-07-30T00:35:15.176Z,99.90
2022-07-30T00:37:43.587Z,99.90
2022-07-30T00:40:12.650Z,99.90
2022-07-30T00:42:43.370Z,99.90
2022-07-30T00:45:13.043Z,99.90
2022-07-30T00:47:41.630Z,99.90
2022-07-30T00:50:14.704Z,99.90
2022-07-30T00:52:43.951Z,99.90
2022-07-30T00:55:14.817Z,99.90
2022-07-30T00:57:43.886Z,99.90
2022-07-30T01:00:15.227Z,99.90
2022-07-30T01:02:43.430Z,99.90
2022-07-30T01:05:13.650Z,99.90
2022-07-30T01:07:42.106Z,99.90
2022-07-30T01:10:11.997Z,99.90
2022-07-30T01:12:40.861Z,99.90
2022-07-30T01:15:11.967Z,99.90
2022-07-30T01:17:40.746Z,99.90
2022-07-30T01:20:16.245Z,99.90
2022-07-30T01:22:52.664Z,99.90
2022-07-30T01:25:29.213Z,99.90
2022-07-30T01:28:03.896Z,99.90
2022-07-30T01:30:37.061Z,99.90
2022-07-30T01:33:07.403Z,99.90
2022-07-30T01:35:36.851Z,99.90
2022-07-30T01:38:07.931Z,99.90
2022-07-30T01:40:38.351Z,99.90
2022-07-30T01:43:10.036Z,99.90
2022-07-30T01:45:41.580Z,99.90
2022-07-30T01:48:14.828Z,99.90
2022-07-30T01:50:46.832Z,99.90
2022-07-30T01:53:18.517Z,99.90
2022-07-30T01:55:47.793Z,99.90
2022-07-30T01:58:19.780Z,99.90
2022-07-30T02:00:50.338Z,99.90
2022-07-30T02:03:18.989Z,99.90
2022-07-30T02:05:55.593Z,99.90
2022-07-30T02:08:30.340Z,99.90
2022-07-30T02:11:05.855Z,99.90
2022-07-30T02:13:42.582Z,99.90
2022-07-30T02:16:16.503Z,99.90
2022-07-30T02:18:57.013Z,99.90
2022-07-30T02:21:36.377Z,99.90
2022-07-30T02:24:08.789Z,99.90
2022-07-30T02:26:39.466Z,99.90
2022-07-30T02:29:11.612Z,99.90
2022-07-30T02:31:41.760Z,99.90
2022-07-30T02:34:12.270Z,99.90
2022-07-30T02:36:43.412Z,99.90
2022-07-30T02:39:15.049Z,99.90
2022-07-30T02:41:49.519Z,99.90
2022-07-30T02:44:23.079Z,99.90
2022-07-30T02:46:52.565Z,99.90
2022-07-30T02:49:23.981Z,99.90
2022-07-30T02:51:53.524Z,99.90
2022-07-30T02:54:24.242Z,99.90
2022-07-30T02:56:54.692Z,99.90
2022-07-30T02:59:26.102Z,99.90
2022-07-30T03:01:55.827Z,99.90
2022-07-30T03:04:25.265Z,99.90
2022-07-30T03:06:54.211Z,99.90
2022-07-30T03:09:23.176Z,99.90
2022-07-30T03:11:54.271Z,99.90
2022-07-30T03:14:24.476Z,99.90
2022-07-30T03:16:59.170Z,99.90
2022-07-30T03:19:30.865Z,99.90
2022-07-30T03:22:00.525Z,99.90
2022-07-30T03:24:29.879Z,99.90
2022-07-30T03:27:01.242Z,99.90
2022-07-30T03:29:32.983Z,99.90
2022-07-30T03:32:02.777Z,99.90
2022-07-30T03:34:34.443Z,99.90
2022-07-30T03:37:05.730Z,99.90
2022-07-30T03:39:35.908Z,99.90
2022-07-30T03:42:05.267Z,99.90
2022-07-30T03:44:36.285Z,99.90
2022-07-30T03:47:07.519Z,99.90
2022-07-30T03:49:35.966Z,99.90
2022-07-30T03:52:05.467Z,99.90
2022-07-30T03:54:34.729Z,99.90
2022-07-30T03:57:03.977Z,99.90
2022-07-30T03:59:35.356Z,99.90
2022-07-30T04:02:07.039Z,99.90
2022-07-30T04:04:35.645Z,99.90
2022-07-30T04:07:04.178Z,99.90
2022-07-30T04:09:32.708Z,99.90
2022-07-30T04:12:00.937Z,99.90
2022-07-30T04:14:39.554Z,99.90
2022-07-30T04:17:14.529Z,99.90
2022-07-30T04:19:50.492Z,99.90
2022-07-30T04:22:23.255Z,99.90
2022-07-30T04:24:55.477Z,99.90
2022-07-30T04:27:27.082Z,99.90
2022-07-30T04:29:58.671Z,99.90
2022-07-30T04:32:29.112Z,99.90
2022-07-30T04:34:58.116Z,99.90
2022-07-30T04:37:28.442Z,99.90
2022-07-30T04:39:57.840Z,99.90
2022-07-30T04:42:27.095Z,99.90
2022-07-30T04:44:56.115Z,99.90
2022-07-30T04:47:25.951Z,99.90
2022-07-30T04:49:57.169Z,99.90
2022-07-30T04:52:26.164Z,99.90
2022-07-30T04:54:58.441Z,99.90
2022-07-30T04:57:27.866Z,99.90
2022-07-30T04:59:56.423Z,99.90
2022-07-30T05:02:28.447Z,99.90
2022-07-30T05:07:42.475Z,99.90
2022-07-30T05:10:12.605Z,99.90
2022-07-30T05:12:40.870Z,99.90
2022-07-30T05:15:11.018Z,99.90
2022-07-30T05:17:39.593Z,99.90
2022-07-30T05:20:11.529Z,99.90
2022-07-30T05:22:39.807Z,99.90
2022-07-30T05:25:16.054Z,99.90
2022-07-30T05:27:44.642Z,99.90
2022-07-30T05:30:13.558Z,99.90
2022-07-30T05:32:42.058Z,99.90
2022-07-30T05:35:12.627Z,99.90
2022-07-30T05:37:40.877Z,99.90
2022-07-30T05:40:10.095Z,99.90
2022-07-30T05:42:38.181Z,99.90
2022-07-30T05:45:09.566Z,99.90
2022-07-30T05:47:37.710Z,99.90
2022-07-30T05:50:06.869Z,99.90
2022-07-30T05:52:37.030Z,99.90
2022-07-30T05:55:05.617Z,99.90
2022-07-30T05:57:37.447Z,99.90
2022-07-30T06:00:06.648Z,99.90
2022-07-30T06:02:34.799Z,99.90
2022-07-30T06:05:03.393Z,99.90
2022-07-30T06:07:31.735Z,99.90
2022-07-30T06:10:01.733Z,99.90
2022-07-30T06:12:30.576Z,99.90
2022-07-30T06:14:59.866Z,99.90
2022-07-30T06:17:28.100Z,99.90
2022-07-30T06:19:57.380Z,99.90
2022-07-30T06:22:26.218Z,99.90
2022-07-30T06:24:54.494Z,99.90
2022-07-30T06:27:26.068Z,99.90
2022-07-30T06:29:54.505Z,99.90
2022-07-30T06:32:22.840Z,99.90
2022-07-30T06:34:59.618Z,99.90
2022-07-30T06:37:58.690Z,99.90
2022-07-30T06:40:21.502Z,99.90
2022-07-30T06:42:51.592Z,99.90
2022-07-30T06:45:20.233Z,99.90
2022-07-30T06:47:48.735Z,99.90
2022-07-30T06:50:18.925Z,99.90
2022-07-30T06:52:47.394Z,99.90
2022-07-30T06:55:15.690Z,99.90
2022-07-30T06:57:43.929Z,99.90
2022-07-30T07:00:15.535Z,99.90
2022-07-30T07:02:47.281Z,99.90
2022-07-30T07:05:21.467Z,99.90
2022-07-30T07:07:58.633Z,99.90
2022-07-30T07:10:28.061Z,99.90
2022-07-30T07:12:56.878Z,99.90
2022-07-30T07:15:36.187Z,99.90
2022-07-30T07:18:07.777Z,99.90
2022-07-30T07:20:36.512Z,99.90
2022-07-30T07:23:09.395Z,99.90
2022-07-30T07:25:41.848Z,99.90
2022-07-30T07:28:13.142Z,99.90
2022-07-30T07:30:44.273Z,99.90
2022-07-30T07:33:15.631Z,99.90
2022-07-30T07:35:48.812Z,99.90
2022-07-30T07:38:19.390Z,99.90
2022-07-30T07:40:47.771Z,99.90
2022-07-30T07:43:18.234Z,99.30
2022-07-30T07:45:50.463Z,97.30
2022-07-30T07:48:21.973Z,93.70
2022-07-30T07:50:50.344Z,91.90
2022-07-30T07:53:20.380Z,92.20
2022-07-30T07:55:48.658Z,91.90
2022-07-30T07:58:25.359Z,90.90
2022-07-30T08:00:56.158Z,89.50
2022-07-30T08:03:24.911Z,87.30
2022-07-30T08:05:59.020Z,86.40
2022-07-30T08:08:36.688Z,82.80
2022-07-30T08:11:06.136Z,83.40
2022-07-30T08:13:51.458Z,80.70
2022-07-30T08:16:23.110Z,80.10
2022-07-30T08:18:51.439Z,78.90
2022-07-30T08:21:19.858Z,77.40
2022-07-30T08:23:48.231Z,75.30
2022-07-30T08:26:16.458Z,81.00
2022-07-30T08:28:47.912Z,87.80
2022-07-30T08:31:16.347Z,93.90
2022-07-30T08:33:46.253Z,97.10
2022-07-30T08:36:16.598Z,97.20
2022-07-30T08:38:45.785Z,97.70
2022-07-30T08:41:14.545Z,97.30
2022-07-30T08:43:54.167Z,95.60
2022-07-30T08:46:30.458Z,95.70
2022-07-30T08:49:12.416Z,95.00
2022-07-30T08:51:43.078Z,91.90
2022-07-30T08:54:12.518Z,87.80
2022-07-30T08:56:41.553Z,82.70
2022-07-30T08:59:10.532Z,78.40
2022-07-30T09:01:41.500Z,75.30
2022-07-30T09:04:11.903Z,72.90
2022-07-30T09:06:40.959Z,72.10
2022-07-30T09:09:11.453Z,71.20
2022-07-30T09:11:39.770Z,70.20
2022-07-30T09:14:12.316Z,70.80
2022-07-30T09:16:41.991Z,70.10
2022-07-30T09:19:17.305Z,70.10
2022-07-30T09:21:59.099Z,68.80
2022-07-30T09:24:30.071Z,67.50
2022-07-30T09:27:00.131Z,67.80
2022-07-30T09:29:30.404Z,67.80
2022-07-30T09:32:00.009Z,69.40
2022-07-30T09:34:32.693Z,69.50
2022-07-30T09:37:03.631Z,69.80
2022-07-30T09:39:33.214Z,69.70
2022-07-30T09:42:02.354Z,69.20
2022-07-30T09:44:34.006Z,67.30
2022-07-30T09:47:12.020Z,68.90
2022-07-30T09:49:47.126Z,69.60
2022-07-30T09:52:29.688Z,71.70
2022-07-30T09:54:59.061Z,72.30
2022-07-30T09:57:30.319Z,70.60
2022-07-30T10:00:01.738Z,69.90
2022-07-30T10:02:32.819Z,74.00
2022-07-30T10:05:20.599Z,76.20
2022-07-30T10:07:53.209Z,77.30
2022-07-30T10:10:25.495Z,77.00
2022-07-30T10:13:01.301Z,77.50
2022-07-30T10:15:35.554Z,74.00
2022-07-30T10:18:06.889Z,72.20
2022-07-30T10:20:39.243Z,71.80
2022-07-30T10:23:10.334Z,70.60
2022-07-30T10:25:49.399Z,71.70
2022-07-30T10:28:24.110Z,72.20
2022-07-30T10:30:53.466Z,72.80
2022-07-30T10:33:35.248Z,71.60
2022-07-30T10:36:13.112Z,69.40
2022-07-30T10:38:46.407Z,69.70
2022-07-30T10:41:47.315Z,67.60
2022-07-30T10:44:42.882Z,63.80
2022-07-30T10:47:16.543Z,63.70
2022-07-30T10:50:12.560Z,62.40
2022-07-30T10:52:52.958Z,63.30
2022-07-30T10:55:37.166Z,62.70
2022-07-30T10:58:09.708Z,61.90
2022-07-30T11:01:01.592Z,62.50
2022-07-30T11:03:40.644Z,61.00
2022-07-30T11:06:29.716Z,59.90
2022-07-30T11:08:59.798Z,58.40
2022-07-30T11:12:02.285Z,59.10
2022-07-30T11:14:58.464Z,60.10
2022-07-30T11:18:04.965Z,60.30
2022-07-30T11:20:48.323Z,58.70
2022-07-30T11:23:41.126Z,59.10
2022-07-30T11:28:58.472Z,56.00
2022-07-30T11:31:58.016Z,55.00
2022-07-30T11:34:30.535Z,55.00
2022-07-30T11:37:18.661Z,58.60
2022-07-30T11:40:09.446Z,56.10
2022-07-30T11:42:40.718Z,53.90
2022-07-30T11:45:27.218Z,52.60
2022-07-30T11:47:58.089Z,53.60
2022-07-30T11:50:30.156Z,51.40
2022-07-30T11:53:02.728Z,51.10
2022-07-30T11:55:34.765Z,52.80
2022-07-30T11:58:07.346Z,54.40
2022-07-30T12:00:38.103Z,51.70
2022-07-30T12:03:12.590Z,49.70
2022-07-30T12:05:41.276Z,50.10
2022-07-30T12:08:31.391Z,52.40
2022-07-30T12:11:01.410Z,50.90
2022-07-30T12:13:44.800Z,50.90
2022-07-30T12:16:16.010Z,50.90
2022-07-30T12:18:46.674Z,50.90
2022-07-30T12:21:17.350Z,52.70
2022-07-30T12:23:56.190Z,53.10
2022-07-30T12:26:50.785Z,52.30
2022-07-30T12:29:21.246Z,51.30
2022-07-30T12:31:50.554Z,50.90
2022-07-30T12:34:23.175Z,49.90
2022-07-30T12:36:51.837Z,51.00
2022-07-30T12:39:24.994Z,51.70
2022-07-30T12:41:56.876Z,52.60
2022-07-30T12:44:41.703Z,50.80
2022-07-30T12:47:23.864Z,51.60
2022-07-30T12:49:53.293Z,49.90
2022-07-30T12:52:28.272Z,49.00
2022-07-30T12:55:03.679Z,49.30
2022-07-30T12:57:55.373Z,50.20
2022-07-30T13:00:26.697Z,51.10
2022-07-30T13:02:55.611Z,48.40
2022-07-30T13:05:44.303Z,49.10
2022-07-30T13:08:12.726Z,48.90
2022-07-30T13:10:55.074Z,48.50
2022-07-30T13:13:23.837Z,48.70
2022-07-30T13:16:02.496Z,49.00
2022-07-30T13:18:31.429Z,49.90
2022-07-30T13:20:59.911Z,49.70
2022-07-30T13:23:29.861Z,50.10
2022-07-30T13:25:58.774Z,50.20
2022-07-30T13:28:28.383Z,51.40
2022-07-30T13:31:00.370Z,52.20
2022-07-30T13:33:31.702Z,50.50
2022-07-30T13:35:59.942Z,48.90
2022-07-30T13:38:28.898Z,50.40
2022-07-30T13:41:02.223Z,50.40
2022-07-30T13:43:32.079Z,51.00
2022-07-30T13:46:03.040Z,50.10
2022-07-30T13:48:35.922Z,50.00
2022-07-30T13:51:08.386Z,50.40
2022-07-30T13:53:36.671Z,49.70
2022-07-30T13:56:05.584Z,49.70
2022-07-30T13:58:40.846Z,48.80
2022-07-30T14:01:09.119Z,49.70
2022-07-30T14:03:50.637Z,48.90
2022-07-30T14:06:19.428Z,48.40
2022-07-30T14:08:48.107Z,48.40
2022-07-30T14:11:17.907Z,49.90
2022-07-30T14:13:46.576Z,50.20
2022-07-30T14:16:42.384Z,50.10
2022-07-30T14:19:07.395Z,50.50
2022-07-30T14:21:35.945Z,49.70
2022-07-30T14:24:08.860Z,49.30
2022-07-30T14:26:37.053Z,49.80
2022-07-30T14:29:09.634Z,51.40
2022-07-30T14:31:38.573Z,48.20
2022-07-30T14:34:08.865Z,48.80
2022-07-30T14:36:37.700Z,49.50
2022-07-30T14:39:06.370Z,49.10
2022-07-30T14:41:37.249Z,51.90
2022-07-30T14:44:06.172Z,53.60
2022-07-30T14:46:35.846Z,54.00
2022-07-30T14:49:23.941Z,53.20
2022-07-30T14:51:58.137Z,51.50
2022-07-30T14:54:27.919Z,51.00
2022-07-30T14:56:59.069Z,51.80
2022-07-30T14:59:28.956Z,52.20
2022-07-30T15:01:57.541Z,52.10
2022-07-30T15:04:27.496Z,48.50
2022-07-30T15:06:59.910Z,48.50
2022-07-30T15:09:29.791Z,49.30
2022-07-30T15:12:08.414Z,49.40
2022-07-30T15:14:40.181Z,48.80
2022-07-30T15:17:09.317Z,47.80
2022-07-30T15:19:50.428Z,46.00
2022-07-30T15:22:20.207Z,43.80
2022-07-30T15:24:48.705Z,45.30
2022-07-30T15:27:17.460Z,43.90
2022-07-30T15:29:45.738Z,43.60
2022-07-30T15:32:14.196Z,43.50
2022-07-30T15:34:43.890Z,42.70
2022-07-30T15:37:12.065Z,43.10
2022-07-30T15:39:47.474Z,44.10
2022-07-30T15:42:15.610Z,43.70
2022-07-30T15:44:48.757Z,44.60
2022-07-30T15:47:17.880Z,45.00
2022-07-30T15:49:47.987Z,44.20
2022-07-30T15:52:16.274Z,45.20
2022-07-30T15:54:45.947Z,44.90
2022-07-30T15:57:14.288Z,46.20
2022-07-30T15:59:42.728Z,45.50
2022-07-30T16:02:13.588Z,44.40
2022-07-30T16:04:42.139Z,45.90
2022-07-30T16:07:18.124Z,45.10
2022-07-30T16:09:47.832Z,46.00
2022-07-30T16:12:16.350Z,47.10
2022-07-30T16:14:44.760Z,46.70
2022-07-30T16:17:14.943Z,46.10
2022-07-30T16:19:45.105Z,47.20
2022-07-30T16:22:21.610Z,45.20
2022-07-30T16:24:54.185Z,46.70
2022-07-30T16:27:26.417Z,46.90
2022-07-30T16:32:49.019Z,45.30
2022-07-30T16:35:18.707Z,46.20
2022-07-30T16:37:47.184Z,47.30
2022-07-30T16:40:17.036Z,43.60
2022-07-30T16:42:45.254Z,41.60
2022-07-30T16:45:13.614Z,40.90
2022-07-30T16:47:42.287Z,40.80
2022-07-30T16:50:12.414Z,41.30
2022-07-30T16:52:44.653Z,41.10
2022-07-30T16:55:13.064Z,41.00
2022-07-30T16:57:43.013Z,43.10
2022-07-30T17:00:14.813Z,43.00
2022-07-30T17:02:44.296Z,41.70
2022-07-30T17:05:13.917Z,44.20
2022-07-30T17:07:42.400Z,42.70
2022-07-30T17:10:12.872Z,43.10
2022-07-30T17:12:50.913Z,43.50
2022-07-30T17:15:19.518Z,42.40
2022-07-30T17:17:48.398Z,43.40
2022-07-30T17:20:21.037Z,43.10
2022-07-30T17:22:49.153Z,44.20
2022-07-30T17:25:18.389Z,44.70
2022-07-30T17:27:50.351Z,46.80
2022-07-30T17:30:18.752Z,47.80
2022-07-30T17:32:48.317Z,47.20
2022-07-30T17:35:16.594Z,47.20
2022-07-30T17:37:45.044Z,47.10
2022-07-30T17:40:28.989Z,48.50
2022-07-30T17:43:07.654Z,48.00
2022-07-30T17:45:39.234Z,49.00
2022-07-30T17:48:09.475Z,48.50
2022-07-30T17:50:37.975Z,50.10
2022-07-30T17:53:07.896Z,48.20
2022-07-30T17:55:36.180Z,50.00
2022-07-30T17:58:06.821Z,49.50
2022-07-30T18:00:38.994Z,48.70
2022-07-30T18:03:08.314Z,49.80
2022-07-30T18:05:42.325Z,49.00
2022-07-30T18:08:10.795Z,49.30
2022-07-30T18:10:40.687Z,50.30
2022-07-30T18:13:26.099Z,50.30
2022-07-30T18:15:58.747Z,48.30
2022-07-30T18:18:30.019Z,50.40
2022-07-30T18:20:58.536Z,48.40
2022-07-30T18:23:34.676Z,49.20
2022-07-30T18:26:40.419Z,49.70
2022-07-30T18:29:14.461Z,49.30
2022-07-30T18:31:43.157Z,48.70
2022-07-30T18:34:13.375Z,49.50
2022-07-30T18:36:41.519Z,49.60
2022-07-30T18:39:11.037Z,49.80
2022-07-30T18:41:40.135Z,49.70
2022-07-30T18:44:10.233Z,50.00
2022-07-30T18:46:40.834Z,49.10
2022-07-30T18:49:33.931Z,48.50
2022-07-30T18:51:59.466Z,50.80
2022-07-30T18:54:27.669Z,49.70
2022-07-30T18:56:55.889Z,49.30
2022-07-30T18:59:27.482Z,50.20
2022-07-30T19:01:56.572Z,50.60
2022-07-30T19:04:24.777Z,52.20
2022-07-30T19:06:53.143Z,51.40
2022-07-30T19:09:21.418Z,50.10
2022-07-30T19:11:49.808Z,50.10
2022-07-30T19:14:18.045Z,50.10
2022-07-30T19:16:49.311Z,50.60
2022-07-30T19:19:19.129Z,50.40
2022-07-30T19:21:47.568Z,50.70
2022-07-30T19:24:15.952Z,51.30
2022-07-30T19:26:44.921Z,51.80
2022-07-30T19:29:14.854Z,51.70
2022-07-30T19:31:43.153Z,51.90
2022-07-30T19:34:12.870Z,51.50
2022-07-30T19:36:41.395Z,52.00
2022-07-30T19:39:13.238Z,52.30
2022-07-30T19:41:51.007Z,52.00
2022-07-30T19:44:19.940Z,52.90
2022-07-30T19:46:48.652Z,52.60
2022-07-30T19:49:19.436Z,52.80
2022-07-30T19:52:10.666Z,52.80
2022-07-30T19:54:36.689Z,53.20
2022-07-30T19:57:05.846Z,53.90
2022-07-30T19:59:55.803Z,52.90
2022-07-30T20:02:22.994Z,53.40
2022-07-30T20:04:53.635Z,54.00
2022-07-30T20:07:23.221Z,54.90
2022-07-30T20:09:58.329Z,55.70
2022-07-30T20:12:26.649Z,56.30
2022-07-30T20:14:54.839Z,56.60
2022-07-30T20:17:24.602Z,57.00
2022-07-30T20:19:59.540Z,57.10
2022-07-30T20:22:32.401Z,57.50
2022-07-30T20:25:02.758Z,57.20
2022-07-30T20:27:37.357Z,56.10
2022-07-30T20:30:08.945Z,56.60
2022-07-30T20:32:37.513Z,56.10
2022-07-30T20:35:10.442Z,55.40
2022-07-30T20:37:54.809Z,55.70
2022-07-30T20:40:24.552Z,55.50
2022-07-30T20:42:55.494Z,56.00
2022-07-30T20:45:25.290Z,55.30
2022-07-30T20:48:08.461Z,55.20
2022-07-30T20:50:50.026Z,55.80
2022-07-30T20:53:20.825Z,55.70
2022-07-30T20:55:49.102Z,56.10
2022-07-30T20:58:17.734Z,55.60
2022-07-30T21:00:49.513Z,56.00
2022-07-30T21:03:21.498Z,56.10
2022-07-30T21:05:53.467Z,56.00
2022-07-30T21:08:25.094Z,55.80
2022-07-30T21:10:55.483Z,58.10
2022-07-30T21:13:26.085Z,59.40
2022-07-30T21:16:02.355Z,59.90
2022-07-30T21:18:32.811Z,60.50
2022-07-30T21:21:04.963Z,60.70
2022-07-30T21:23:33.999Z,61.20
2022-07-30T21:26:13.404Z,61.20
2022-07-30T21:28:42.246Z,61.20
2022-07-30T21:31:11.011Z,60.50
2022-07-30T21:33:40.058Z,60.80
2022-07-30T21:38:58.430Z,60.90
2022-07-30T21:41:40.010Z,61.40
2022-07-30T21:44:09.844Z,61.40
2022-07-30T21:46:40.732Z,62.10
2022-07-30T21:49:10.501Z,62.10
2022-07-30T21:51:41.057Z,62.70
2022-07-30T21:54:13.913Z,63.30
2022-07-30T21:56:45.525Z,64.20
2022-07-30T21:59:13.935Z,64.20
2022-07-30T22:04:30.638Z,64.20
2022-07-30T22:07:02.310Z,63.90
2022-07-30T22:09:34.111Z,63.70
2022-07-30T22:12:09.367Z,64.30
2022-07-30T22:14:40.254Z,64.40
2022-07-30T22:17:14.733Z,64.20
2022-07-30T22:19:54.636Z,63.90
2022-07-30T22:22:26.602Z,64.30
2022-07-30T22:24:57.155Z,65.10
2022-07-30T22:27:28.007Z,65.10
2022-07-30T22:30:10.465Z,65.70
2022-07-30T22:32:44.076Z,65.30
2022-07-30T22:35:17.392Z,65.70
2022-07-30T22:38:02.604Z,68.50
2022-07-30T22:40:31.095Z,69.20
2022-07-30T22:43:04.080Z,70.00
2022-07-30T22:45:48.730Z,71.10
2022-07-30T22:48:27.492Z,72.10
2022-07-30T22:50:57.103Z,72.40
2022-07-30T22:54:10.906Z,72.10
2022-07-30T22:56:20.360Z,72.00
2022-07-30T22:58:52.357Z,72.10
2022-07-30T23:01:20.659Z,71.80
2022-07-30T23:03:51.698Z,71.80
2022-07-30T23:06:22.184Z,71.90
2022-07-30T23:08:52.580Z,71.70
2022-07-30T23:11:21.437Z,71.70
2022-07-30T23:12:28.084Z,64.20
2022-07-30T23:12:31.756Z,60.70
2022-07-30T23:13:53.767Z,71.90
2022-07-30T23:16:22.161Z,71.80
2022-07-30T23:18:50.323Z,70.70
2022-07-30T23:21:18.494Z,70.90
2022-07-30T23:23:46.581Z,70.60
2022-07-30T23:26:35.173Z,71.80
2022-07-30T23:29:03.400Z,72.00
2022-07-30T23:31:31.679Z,73.00
2022-07-30T23:33:59.875Z,73.00
2022-07-30T23:36:28.117Z,73.30
2022-07-30T23:38:56.364Z,73.60
2022-07-30T23:41:29.821Z,73.90
2022-07-30T23:44:00.458Z,73.60
2022-07-30T23:46:28.791Z,73.60
2022-07-30T23:48:56.873Z,73.40
2022-07-30T23:51:25.154Z,73.30
2022-07-30T23:54:01.993Z,75.10
2022-07-30T23:56:30.260Z,75.00
2022-07-30T23:59:00.172Z,74.70
